sensor_id;sensor_type;location;lat;lon;timestamp;temperature;humidity
33761;DHT22;20084;47.912;19.044;2022-12-08T12:23:06;6.40;99.90
33761;DHT22;20084;47.912;19.044;2022-12-08T12:25:34;6.30;99.90
33761;DHT22;20084;47.912;19.044;2022-12-08T12:28:04;6.30;99.90
33761;DHT22;20084;47.912;19.044;2022-12-08T12:30:57;6.30;99.90
33761;DHT22;20084;47.912;19.044;2022-12-08T12:33:25;6.40;99.90
33761;DHT22;20084;47.912;19.044;2022-12-08T12:35:55;6.30;99.90
33761;DHT22;20084;47.912;19.044;2022-12-08T12:38:36;6.40;99.90
33761;DHT22;20084;47.912;19.044;2022-12-08T12:51:58;6.60;99.90
33761;DHT22;20084;47.912;19.044;2022-12-08T12:54:27;6.60;99.90
33761;DHT22;20084;47.912;19.044;2022-12-08T12:56:55;6.50;99.90
33761;DHT22;20084;47.912;19.044;2022-12-08T13:02:29;6.40;99.90
33761;DHT22;20084;47.912;19.044;2022-12-08T13:07:30;6.50;99.90
33761;DHT22;20084;47.912;19.044;2022-12-08T13:12:42;6.60;99.90
33761;DHT22;20084;47.912;19.044;2022-12-08T13:15:18;6.60;99.90
33761;DHT22;20084;47.912;19.044;2022-12-08T13:17:46;6.60;99.90
33761;DHT22;20084;47.912;19.044;2022-12-08T13:20:22;6.50;99.90
33761;DHT22;20084;47.912;19.044;2022-12-08T13:23:00;6.50;99.90
33761;DHT22;20084;47.912;19.044;2022-12-08T13:28:24;6.50;99.90
33761;DHT22;20084;47.912;19.044;2022-12-08T13:30:53;6.60;99.90
33761;DHT22;20084;47.912;19.044;2022-12-08T13:36:23;6.50;99.90
33761;DHT22;20084;47.912;19.044;2022-12-08T13:38:55;6.50;99.90
33761;DHT22;20084;47.912;19.044;2022-12-08T13:41:28;6.50;99.90
33761;DHT22;20084;47.912;19.044;2022-12-08T13:44:12;6.60;99.90
33761;DHT22;20084;47.912;19.044;2022-12-08T13:46:42;6.60;99.90
33761;DHT22;20084;47.912;19.044;2022-12-08T13:49:12;6.60;99.90
33761;DHT22;20084;47.912;19.044;2022-12-08T13:51:45;6.50;99.90
33761;DHT22;20084;47.912;19.044;2022-12-08T13:54:17;6.40;99.90
33761;DHT22;20084;47.912;19.044;2022-12-08T13:56:46;6.30;99.90
33761;DHT22;20084;47.912;19.044;2022-12-08T14:01:44;6.30;99.90
33761;DHT22;20084;47.912;19.044;2022-12-08T14:04:19;6.30;99.90
33761;DHT22;20084;47.912;19.044;2022-12-08T14:06:51;6.30;99.90
33761;DHT22;20084;47.912;19.044;2022-12-08T14:09:21;6.30;99.90
33761;DHT22;20084;47.912;19.044;2022-12-08T14:11:55;6.40;99.90
33761;DHT22;20084;47.912;19.044;2022-12-08T14:14:32;6.40;99.90
33761;DHT22;20084;47.912;19.044;2022-12-08T14:17:04;6.30;99.90
33761;DHT22;20084;47.912;19.044;2022-12-08T14:19:32;6.30;99.90
33761;DHT22;20084;47.912;19.044;2022-12-08T14:22:13;6.30;99.90
33761;DHT22;20084;47.912;19.044;2022-12-08T14:24:44;6.30;99.90
33761;DHT22;20084;47.912;19.044;2022-12-08T14:27:16;6.30;99.90
33761;DHT22;20084;47.912;19.044;2022-12-08T14:29:54;6.30;99.90
33761;DHT22;20084;47.912;19.044;2022-12-08T14:37:47;6.30;99.90
33761;DHT22;20084;47.912;19.044;2022-12-08T14:42:52;6.20;99.90
33761;DHT22;20084;47.912;19.044;2022-12-08T14:45:19;6.20;99.90
33761;DHT22;20084;47.912;19.044;2022-12-08T14:47:45;6.10;99.90
33761;DHT22;20084;47.912;19.044;2022-12-08T14:50:40;6.00;99.90
33761;DHT22;20084;47.912;19.044;2022-12-08T14:53:15;6.00;99.90
33761;DHT22;20084;47.912;19.044;2022-12-08T14:55:43;6.10;99.90
33761;DHT22;20084;47.912;19.044;2022-12-08T14:58:21;6.00;99.90
33761;DHT22;20084;47.912;19.044;2022-12-08T15:00:54;6.00;99.90
33761;DHT22;20084;47.912;19.044;2022-12-08T15:03:22;6.00;99.90
33761;DHT22;20084;47.912;19.044;2022-12-08T15:06:02;6.00;99.90
33761;DHT22;20084;47.912;19.044;2022-12-08T15:08:30;6.00;99.90
33761;DHT22;20084;47.912;19.044;2022-12-08T15:13:49;6.00;99.90
33761;DHT22;20084;47.912;19.044;2022-12-08T15:19:17;5.90;99.90
33761;DHT22;20084;47.912;19.044;2022-12-08T15:21:46;5.90;99.90
33761;DHT22;20084;47.912;19.044;2022-12-08T15:24:14;5.80;99.90
33761;DHT22;20084;47.912;19.044;2022-12-08T15:26:44;5.70;99.90
33761;DHT22;20084;47.912;19.044;2022-12-08T15:29:21;5.70;99.90
33761;DHT22;20084;47.912;19.044;2022-12-08T15:31:48;5.70;99.90
33761;DHT22;20084;47.912;19.044;2022-12-08T15:34:14;5.70;99.90
33761;DHT22;20084;47.912;19.044;2022-12-08T15:36:40;5.70;99.90
33761;DHT22;20084;47.912;19.044;2022-12-08T15:39:19;5.70;99.90
33761;DHT22;20084;47.912;19.044;2022-12-08T15:41:45;5.70;99.90
33761;DHT22;20084;47.912;19.044;2022-12-08T15:44:11;5.70;99.90
33761;DHT22;20084;47.912;19.044;2022-12-08T15:46:36;5.70;99.90
33761;DHT22;20084;47.912;19.044;2022-12-08T15:49:02;5.70;99.90
33761;DHT22;20084;47.912;19.044;2022-12-08T15:51:27;5.70;99.90
33761;DHT22;20084;47.912;19.044;2022-12-08T15:53:55;5.60;99.90
33761;DHT22;20084;47.912;19.044;2022-12-08T15:56:21;5.60;99.90
33761;DHT22;20084;47.912;19.044;2022-12-08T15:58:46;5.60;99.90
33761;DHT22;20084;47.912;19.044;2022-12-08T16:01:12;5.60;99.90
33761;DHT22;20084;47.912;19.044;2022-12-08T16:03:38;5.70;99.90
33761;DHT22;20084;47.912;19.044;2022-12-08T16:06:05;5.60;99.90
33761;DHT22;20084;47.912;19.044;2022-12-08T16:08:30;5.60;99.90
33761;DHT22;20084;47.912;19.044;2022-12-08T16:10:56;5.60;99.90
33761;DHT22;20084;47.912;19.044;2022-12-08T16:13:42;5.60;99.90
33761;DHT22;20084;47.912;19.044;2022-12-08T16:16:18;5.50;99.90
33761;DHT22;20084;47.912;19.044;2022-12-08T16:18:48;5.50;99.90
33761;DHT22;20084;47.912;19.044;2022-12-08T16:21:14;5.40;99.90
33761;DHT22;20084;47.912;19.044;2022-12-08T16:23:40;5.40;99.90
33761;DHT22;20084;47.912;19.044;2022-12-08T16:26:09;5.40;99.90
33761;DHT22;20084;47.912;19.044;2022-12-08T16:28:35;5.40;99.90
33761;DHT22;20084;47.912;19.044;2022-12-08T16:31:01;5.40;99.90
33761;DHT22;20084;47.912;19.044;2022-12-08T16:33:26;5.40;99.90
33761;DHT22;20084;47.912;19.044;2022-12-08T16:35:52;5.40;99.90
33761;DHT22;20084;47.912;19.044;2022-12-08T16:38:18;5.40;99.90
33761;DHT22;20084;47.912;19.044;2022-12-08T16:40:45;5.50;99.90
33761;DHT22;20084;47.912;19.044;2022-12-08T16:43:34;5.50;99.90
33761;DHT22;20084;47.912;19.044;2022-12-08T16:46:01;5.50;99.90
33761;DHT22;20084;47.912;19.044;2022-12-08T16:48:27;5.50;99.90
33761;DHT22;20084;47.912;19.044;2022-12-08T16:50:53;5.50;99.90
33761;DHT22;20084;47.912;19.044;2022-12-08T16:53:19;5.50;99.90
33761;DHT22;20084;47.912;19.044;2022-12-08T16:55:48;5.40;99.90
33761;DHT22;20084;47.912;19.044;2022-12-08T16:58:15;5.40;99.90
33761;DHT22;20084;47.912;19.044;2022-12-08T17:00:43;5.50;99.90
33761;DHT22;20084;47.912;19.044;2022-12-08T17:03:10;5.50;99.90
33761;DHT22;20084;47.912;19.044;2022-12-08T17:05:39;5.40;99.90
33761;DHT22;20084;47.912;19.044;2022-12-08T17:08:05;5.50;99.90
33761;DHT22;20084;47.912;19.044;2022-12-08T17:10:31;5.60;99.90
33761;DHT22;20084;47.912;19.044;2022-12-08T17:13:00;5.60;99.90
33761;DHT22;20084;47.912;19.044;2022-12-08T17:15:26;5.60;99.90
33761;DHT22;20084;47.912;19.044;2022-12-08T17:17:53;5.60;99.90
33761;DHT22;20084;47.912;19.044;2022-12-08T17:20:24;5.50;99.90
33761;DHT22;20084;47.912;19.044;2022-12-08T17:22:57;5.50;99.90
33761;DHT22;20084;47.912;19.044;2022-12-08T17:25:23;5.50;99.90
33761;DHT22;20084;47.912;19.044;2022-12-08T17:27:49;5.50;99.90
33761;DHT22;20084;47.912;19.044;2022-12-08T17:30:15;5.50;99.90
33761;DHT22;20084;47.912;19.044;2022-12-08T17:32:42;5.50;99.90
33761;DHT22;20084;47.912;19.044;2022-12-08T17:35:09;5.60;99.90
33761;DHT22;20084;47.912;19.044;2022-12-08T17:37:35;5.70;99.90
33761;DHT22;20084;47.912;19.044;2022-12-08T17:40:01;5.70;99.90
33761;DHT22;20084;47.912;19.044;2022-12-08T17:42:27;5.60;99.90
33761;DHT22;20084;47.912;19.044;2022-12-08T17:44:53;5.60;99.90
33761;DHT22;20084;47.912;19.044;2022-12-08T17:47:19;5.60;99.90
33761;DHT22;20084;47.912;19.044;2022-12-08T17:49:45;5.60;99.90
33761;DHT22;20084;47.912;19.044;2022-12-08T17:52:11;5.50;99.90
33761;DHT22;20084;47.912;19.044;2022-12-08T17:54:37;5.50;99.90
33761;DHT22;20084;47.912;19.044;2022-12-08T17:57:03;5.50;99.90
33761;DHT22;20084;47.912;19.044;2022-12-08T17:59:29;5.50;99.90
33761;DHT22;20084;47.912;19.044;2022-12-08T18:01:55;5.50;99.90
33761;DHT22;20084;47.912;19.044;2022-12-08T18:04:21;5.40;99.90
33761;DHT22;20084;47.912;19.044;2022-12-08T18:06:47;5.40;99.90
33761;DHT22;20084;47.912;19.044;2022-12-08T18:09:14;5.30;99.90
33761;DHT22;20084;47.912;19.044;2022-12-08T18:11:41;5.30;99.90
33761;DHT22;20084;47.912;19.044;2022-12-08T18:14:09;5.30;99.90
33761;DHT22;20084;47.912;19.044;2022-12-08T18:16:40;5.30;99.90
33761;DHT22;20084;47.912;19.044;2022-12-08T18:19:07;5.20;99.90
33761;DHT22;20084;47.912;19.044;2022-12-08T18:21:34;5.10;99.90
33761;DHT22;20084;47.912;19.044;2022-12-08T18:24:00;5.10;99.90
33761;DHT22;20084;47.912;19.044;2022-12-08T18:26:26;5.10;99.90
33761;DHT22;20084;47.912;19.044;2022-12-08T18:28:51;5.20;99.90
33761;DHT22;20084;47.912;19.044;2022-12-08T18:31:19;5.20;99.90
33761;DHT22;20084;47.912;19.044;2022-12-08T18:33:47;5.20;99.90
33761;DHT22;20084;47.912;19.044;2022-12-08T18:36:20;5.20;99.90
33761;DHT22;20084;47.912;19.044;2022-12-08T18:38:46;5.30;99.90
33761;DHT22;20084;47.912;19.044;2022-12-08T18:41:18;5.30;99.90
33761;DHT22;20084;47.912;19.044;2022-12-08T18:43:45;5.30;99.90
33761;DHT22;20084;47.912;19.044;2022-12-08T18:46:12;5.30;99.90
33761;DHT22;20084;47.912;19.044;2022-12-08T18:48:44;5.40;99.90
33761;DHT22;20084;47.912;19.044;2022-12-08T18:51:21;5.40;99.90
33761;DHT22;20084;47.912;19.044;2022-12-08T18:53:48;5.30;99.90
33761;DHT22;20084;47.912;19.044;2022-12-08T18:56:33;5.30;99.90
33761;DHT22;20084;47.912;19.044;2022-12-08T18:59:03;5.20;99.90
33761;DHT22;20084;47.912;19.044;2022-12-08T19:01:30;5.20;99.90
33761;DHT22;20084;47.912;19.044;2022-12-08T19:03:58;5.30;99.90
33761;DHT22;20084;47.912;19.044;2022-12-08T19:06:23;5.30;99.90
33761;DHT22;20084;47.912;19.044;2022-12-08T19:08:49;5.30;99.90
33761;DHT22;20084;47.912;19.044;2022-12-08T19:11:25;5.30;99.90
33761;DHT22;20084;47.912;19.044;2022-12-08T19:13:52;5.30;99.90
33761;DHT22;20084;47.912;19.044;2022-12-08T19:16:18;5.30;99.90
33761;DHT22;20084;47.912;19.044;2022-12-08T19:18:45;5.30;99.90
33761;DHT22;20084;47.912;19.044;2022-12-08T19:21:12;5.20;99.90
33761;DHT22;20084;47.912;19.044;2022-12-08T19:23:39;5.20;99.90
33761;DHT22;20084;47.912;19.044;2022-12-08T19:26:06;5.30;99.90
33761;DHT22;20084;47.912;19.044;2022-12-08T19:28:32;5.30;99.90
33761;DHT22;20084;47.912;19.044;2022-12-08T19:31:07;5.20;99.90
33761;DHT22;20084;47.912;19.044;2022-12-08T19:33:33;5.30;99.90
33761;DHT22;20084;47.912;19.044;2022-12-08T19:36:12;5.30;99.90
33761;DHT22;20084;47.912;19.044;2022-12-08T19:38:39;5.30;99.90
33761;DHT22;20084;47.912;19.044;2022-12-08T19:41:24;5.30;99.90
33761;DHT22;20084;47.912;19.044;2022-12-08T19:44:18;5.30;99.90
33761;DHT22;20084;47.912;19.044;2022-12-08T19:46:57;5.20;99.90
33761;DHT22;20084;47.912;19.044;2022-12-08T19:49:23;5.20;99.90
33761;DHT22;20084;47.912;19.044;2022-12-08T19:51:49;5.10;99.90
33761;DHT22;20084;47.912;19.044;2022-12-08T19:54:15;5.00;99.90
33761;DHT22;20084;47.912;19.044;2022-12-08T19:56:41;5.10;99.90
33761;DHT22;20084;47.912;19.044;2022-12-08T19:59:09;5.10;99.90
33761;DHT22;20084;47.912;19.044;2022-12-08T20:01:37;5.20;99.90
33761;DHT22;20084;47.912;19.044;2022-12-08T20:04:03;5.20;99.90
33761;DHT22;20084;47.912;19.044;2022-12-08T20:06:29;5.20;99.90
33761;DHT22;20084;47.912;19.044;2022-12-08T20:08:55;5.20;99.90
33761;DHT22;20084;47.912;19.044;2022-12-08T20:11:21;5.20;99.90
33761;DHT22;20084;47.912;19.044;2022-12-08T20:13:47;5.30;99.90
33761;DHT22;20084;47.912;19.044;2022-12-08T20:16:14;5.30;99.90
33761;DHT22;20084;47.912;19.044;2022-12-08T20:18:41;5.30;99.90
33761;DHT22;20084;47.912;19.044;2022-12-08T20:21:09;5.30;99.90
33761;DHT22;20084;47.912;19.044;2022-12-08T20:23:35;5.30;99.90
33761;DHT22;20084;47.912;19.044;2022-12-08T20:26:06;5.30;99.90
33761;DHT22;20084;47.912;19.044;2022-12-08T20:28:33;5.30;99.90
33761;DHT22;20084;47.912;19.044;2022-12-08T20:31:01;5.20;99.90
33761;DHT22;20084;47.912;19.044;2022-12-08T20:33:27;5.10;99.90
33761;DHT22;20084;47.912;19.044;2022-12-08T20:36:00;5.10;99.90
33761;DHT22;20084;47.912;19.044;2022-12-08T20:38:27;5.20;99.90
33761;DHT22;20084;47.912;19.044;2022-12-08T20:40:53;5.20;99.90
33761;DHT22;20084;47.912;19.044;2022-12-08T20:43:19;5.20;99.90
33761;DHT22;20084;47.912;19.044;2022-12-08T20:45:45;5.30;99.90
33761;DHT22;20084;47.912;19.044;2022-12-08T20:48:11;5.30;99.90
33761;DHT22;20084;47.912;19.044;2022-12-08T20:50:37;5.20;99.90
33761;DHT22;20084;47.912;19.044;2022-12-08T20:53:03;5.20;99.90
33761;DHT22;20084;47.912;19.044;2022-12-08T20:55:29;5.20;99.90
33761;DHT22;20084;47.912;19.044;2022-12-08T20:57:55;5.20;99.90
33761;DHT22;20084;47.912;19.044;2022-12-08T21:00:21;5.20;99.90
33761;DHT22;20084;47.912;19.044;2022-12-08T21:02:50;5.10;99.90
33761;DHT22;20084;47.912;19.044;2022-12-08T21:05:16;5.10;99.90
33761;DHT22;20084;47.912;19.044;2022-12-08T21:07:43;5.20;99.90
33761;DHT22;20084;47.912;19.044;2022-12-08T21:10:10;5.20;99.90
33761;DHT22;20084;47.912;19.044;2022-12-08T21:12:36;5.20;99.90
33761;DHT22;20084;47.912;19.044;2022-12-08T21:15:02;5.20;99.90
33761;DHT22;20084;47.912;19.044;2022-12-08T21:17:28;5.20;99.90
33761;DHT22;20084;47.912;19.044;2022-12-08T21:19:53;5.20;99.90
33761;DHT22;20084;47.912;19.044;2022-12-08T21:22:19;5.30;99.90
33761;DHT22;20084;47.912;19.044;2022-12-08T21:24:45;5.30;99.90
33761;DHT22;20084;47.912;19.044;2022-12-08T21:27:11;5.30;99.90
33761;DHT22;20084;47.912;19.044;2022-12-08T21:29:37;5.30;99.90
33761;DHT22;20084;47.912;19.044;2022-12-08T21:32:02;5.30;99.90
33761;DHT22;20084;47.912;19.044;2022-12-08T21:34:28;5.30;99.90
33761;DHT22;20084;47.912;19.044;2022-12-08T21:36:58;5.30;99.90
33761;DHT22;20084;47.912;19.044;2022-12-08T21:39:24;5.30;99.90
33761;DHT22;20084;47.912;19.044;2022-12-08T21:41:50;5.30;99.90
33761;DHT22;20084;47.912;19.044;2022-12-08T21:44:34;5.30;99.90
33761;DHT22;20084;47.912;19.044;2022-12-08T21:47:00;5.30;99.90
33761;DHT22;20084;47.912;19.044;2022-12-08T21:49:26;5.30;99.90
33761;DHT22;20084;47.912;19.044;2022-12-08T21:51:52;5.20;99.90
33761;DHT22;20084;47.912;19.044;2022-12-08T21:54:17;5.30;99.90
33761;DHT22;20084;47.912;19.044;2022-12-08T21:56:44;5.40;99.90
33761;DHT22;20084;47.912;19.044;2022-12-08T21:59:10;5.30;99.90
33761;DHT22;20084;47.912;19.044;2022-12-08T22:01:36;5.30;99.90
33761;DHT22;20084;47.912;19.044;2022-12-08T22:04:01;5.30;99.90
33761;DHT22;20084;47.912;19.044;2022-12-08T22:06:27;5.30;99.90
33761;DHT22;20084;47.912;19.044;2022-12-08T22:08:56;5.30;99.90
33761;DHT22;20084;47.912;19.044;2022-12-08T22:11:22;5.20;99.90
33761;DHT22;20084;47.912;19.044;2022-12-08T22:13:48;5.10;99.90
33761;DHT22;20084;47.912;19.044;2022-12-08T22:16:13;5.10;99.90
33761;DHT22;20084;47.912;19.044;2022-12-08T22:18:40;5.00;99.90
33761;DHT22;20084;47.912;19.044;2022-12-08T22:21:14;5.00;99.90
33761;DHT22;20084;47.912;19.044;2022-12-08T22:23:39;5.00;99.90
33761;DHT22;20084;47.912;19.044;2022-12-08T22:26:06;5.00;99.90
33761;DHT22;20084;47.912;19.044;2022-12-08T22:28:35;5.10;99.90
33761;DHT22;20084;47.912;19.044;2022-12-08T22:31:15;5.10;99.90
33761;DHT22;20084;47.912;19.044;2022-12-08T22:33:42;5.00;99.90
33761;DHT22;20084;47.912;19.044;2022-12-08T22:36:17;5.10;99.90
33761;DHT22;20084;47.912;19.044;2022-12-08T22:38:43;5.10;99.90
33761;DHT22;20084;47.912;19.044;2022-12-08T22:41:09;5.10;99.90
33761;DHT22;20084;47.912;19.044;2022-12-08T22:43:35;5.10;99.90
33761;DHT22;20084;47.912;19.044;2022-12-08T22:46:06;5.10;99.90
33761;DHT22;20084;47.912;19.044;2022-12-08T22:48:32;5.00;99.90
33761;DHT22;20084;47.912;19.044;2022-12-08T22:51:01;5.00;99.90
33761;DHT22;20084;47.912;19.044;2022-12-08T22:53:26;5.00;99.90
33761;DHT22;20084;47.912;19.044;2022-12-08T22:55:53;5.10;99.90
33761;DHT22;20084;47.912;19.044;2022-12-08T22:58:19;5.10;99.90
33761;DHT22;20084;47.912;19.044;2022-12-08T23:00:45;5.10;99.90
33761;DHT22;20084;47.912;19.044;2022-12-08T23:03:10;5.10;99.90
33761;DHT22;20084;47.912;19.044;2022-12-08T23:05:37;5.10;99.90
33761;DHT22;20084;47.912;19.044;2022-12-08T23:08:05;5.00;99.90
33761;DHT22;20084;47.912;19.044;2022-12-08T23:10:32;5.00;99.90
33761;DHT22;20084;47.912;19.044;2022-12-08T23:12:57;4.90;99.90
33761;DHT22;20084;47.912;19.044;2022-12-08T23:15:23;5.00;99.90
33761;DHT22;20084;47.912;19.044;2022-12-08T23:17:49;5.10;99.90
33761;DHT22;20084;47.912;19.044;2022-12-08T23:20:15;5.20;99.90
33761;DHT22;20084;47.912;19.044;2022-12-08T23:22:41;5.20;99.90
33761;DHT22;20084;47.912;19.044;2022-12-08T23:25:06;5.20;99.90
33761;DHT22;20084;47.912;19.044;2022-12-08T23:27:32;5.20;99.90
33761;DHT22;20084;47.912;19.044;2022-12-08T23:29:58;5.20;99.90
33761;DHT22;20084;47.912;19.044;2022-12-08T23:32:24;5.20;99.90
33761;DHT22;20084;47.912;19.044;2022-12-08T23:34:50;5.30;99.90
33761;DHT22;20084;47.912;19.044;2022-12-08T23:37:15;5.30;99.90
33761;DHT22;20084;47.912;19.044;2022-12-08T23:39:41;5.20;99.90
33761;DHT22;20084;47.912;19.044;2022-12-08T23:42:07;5.20;99.90
33761;DHT22;20084;47.912;19.044;2022-12-08T23:44:32;5.10;99.90
33761;DHT22;20084;47.912;19.044;2022-12-08T23:46:58;5.10;99.90
33761;DHT22;20084;47.912;19.044;2022-12-08T23:49:24;5.10;99.90
33761;DHT22;20084;47.912;19.044;2022-12-08T23:51:50;5.10;99.90
33761;DHT22;20084;47.912;19.044;2022-12-08T23:54:16;5.10;99.90
33761;DHT22;20084;47.912;19.044;2022-12-08T23:56:41;5.20;99.90
33761;DHT22;20084;47.912;19.044;2022-12-08T23:59:08;5.20;99.90
